DNSO

Sadiq Abubakar III International Airport

Airport
ICAO code
DNSO
IATA Code
SKO
Summary
ICAO Region
AFI
ICAO Territory
Location

Sire, Sokoto State

Serving
Sokoto
Elevation
1010 ft
Coordinates
12° 54' 58" N , 5° 12' 25" E
KCC
Metar
Observation
DNSO 271200Z 26009KT CAVOK 36/09 Q1009
Station
Sokoto
Date/Time
2023-01-27 13:00:00
Wind direction
260°
Wind speed
09 kts
Lowest cloud amount
clouds and visibility OK
Temperature
36°C
Dew point
9°C
Humidity
19%
QNH
1009 hPa
Weather condition
n/a

Sadiq Abubakar III International Airport or Sultan Saddik Abubakar Airport (IATA: SKO, ICAO: DNSO) is an airport serving Sokoto, the capital of the Sokoto State in Nigeria.

Climatology

Warm Steppe climate (Köppen climate classification BSh)

Runways

Designator Length Width Surface Rops
8/26 3000 60 ASP No/No

Airport map

Aerial View

Airport accidents

SKYbrary Partners:

Safety knowledge contributed by: